Accueil
METAR-TAF:

METAR-TAF

Aéroports :

Aéroport international de Pohnpei

Ponape, Micronésie

latitude: 06-59N, longitude: 158-12E, altitude: 2 m

Observation

Le bulletin a été fait il y a 28 minutes, à 12:50 UTC
Vent 8 kt de nord-est
Température 28°C
Humidité 84%
Pression 1010 hPa
Visibilité: 24.1 km
Nuages épars à une hauteur de 1800 ft
Nuages fragmentés à une hauteur de 13000 ft
Ciel couvert à une hauteur de 30000 ft

METAR: PTPN 161250Z 05008KT 15SM SCT018 BKN130 OVC300 28/25 A2982

Heure: 00:18 (13:18 UTC)

Prévision

Le bulletin a été fait il y a 1 heure et 58 minutes, à 11:20 UTC
Prévision valable du 16 à 12 UTC au 17 à 12 UTC
Vent 11 kt de nord-est
Visibilité: 10 km
Nuages épars à une hauteur de 1800 ft
averses à proximité
Temporairement
du 16 à 12 UTC au 16 à 16 UTC
Nuages fragmentés à une hauteur de 1800 ft
faibles averses de pluie

TAF: PTPN 161120Z 1612/1712 05011KT P6SM VCSH SCT018 TEMPO 1612/1616 -SHRA BKN018

Observations et prévisions météorologiques de plus de 4000 aéroports (messages METAR et TAF).

Les stations disponibles sont représentées par des disques jaunes et rouges sur la carte.

Passer la souris dessus pour voir le nom de la station.

Cliquer dessus pour voir les observations et prévisions météorologiques.

Pour changer de carte: cliquez sur les boutons verts avec une croix noire pour zoomer, sur le bouton vert avec un tiret pour effectuer un zoom arrière, ou sur les flèches vertes pour les cartes adjacentes.


METAR-TAF: